createdAt,value
2023-04-17T00:00:28.515Z,10.68
2023-04-17T00:02:55.372Z,11.45
2023-04-17T00:05:23.489Z,10.85
2023-04-17T00:07:50.183Z,11.75
2023-04-17T00:10:17.326Z,13.63
2023-04-17T00:12:45.345Z,11.52
2023-04-17T00:15:14.823Z,11.88
2023-04-17T00:17:44.337Z,11.98
2023-04-17T00:20:13.754Z,11.15
2023-04-17T00:22:40.717Z,10.00
2023-04-17T00:25:13.839Z,11.40
2023-04-17T00:27:44.070Z,11.48
2023-04-17T00:30:13.591Z,11.43
2023-04-17T00:32:40.233Z,12.80
2023-04-17T00:35:07.673Z,12.15
2023-04-17T00:37:35.804Z,12.85
2023-04-17T00:40:03.564Z,13.70
2023-04-17T00:42:30.245Z,14.70
2023-04-17T00:44:57.411Z,17.92
2023-04-17T00:47:26.445Z,22.10
2023-04-17T00:49:53.279Z,16.55
2023-04-17T00:52:30.031Z,16.77
2023-04-17T00:54:58.767Z,16.30
2023-04-17T00:57:28.260Z,16.98
2023-04-17T00:59:57.641Z,15.65
2023-04-17T01:02:25.318Z,15.52
2023-04-17T01:04:52.117Z,16.25
2023-04-17T01:07:19.868Z,19.38
2023-04-17T01:09:46.561Z,20.25
2023-04-17T01:12:26.040Z,17.20
2023-04-17T01:14:54.544Z,19.85
2023-04-17T01:17:27.893Z,18.98
2023-04-17T01:19:55.564Z,19.48
2023-04-17T01:22:22.316Z,18.85
2023-04-17T01:24:49.490Z,18.42
2023-04-17T01:27:16.129Z,18.55
2023-04-17T01:29:45.421Z,20.33
2023-04-17T01:32:15.103Z,19.05
2023-04-17T01:35:18.583Z,20.20
2023-04-17T01:37:45.328Z,19.58
2023-04-17T01:40:14.655Z,20.42
2023-04-17T01:42:44.465Z,18.40
2023-04-17T01:45:13.710Z,17.13
2023-04-17T01:47:45.292Z,17.58
2023-04-17T01:50:15.672Z,17.55
2023-04-17T01:52:45.912Z,23.05
2023-04-17T01:55:15.784Z,18.38
2023-04-17T01:57:45.252Z,17.15
2023-04-17T02:00:15.548Z,18.10
2023-04-17T02:02:44.998Z,17.65
2023-04-17T02:05:15.405Z,16.10
2023-04-17T02:07:47.013Z,18.60
2023-04-17T02:10:14.888Z,17.05
2023-04-17T02:12:43.620Z,16.03
2023-04-17T02:15:11.998Z,18.52
2023-04-17T02:17:38.713Z,16.95
2023-04-17T02:20:07.461Z,19.92
2023-04-17T02:22:34.120Z,20.60
2023-04-17T02:25:00.888Z,20.88
2023-04-17T02:27:27.679Z,20.60
2023-04-17T02:29:54.279Z,18.83
2023-04-17T02:32:21.060Z,22.77
2023-04-17T02:34:47.664Z,23.15
2023-04-17T02:37:14.620Z,20.15
2023-04-17T02:39:48.677Z,18.40
2023-04-17T02:42:15.525Z,20.80
2023-04-17T02:44:49.317Z,18.85
2023-04-17T02:47:16.028Z,19.13
2023-04-17T02:49:46.299Z,20.17
2023-04-17T02:52:15.845Z,19.98
2023-04-17T02:54:44.235Z,17.50
2023-04-17T02:57:13.086Z,18.30
2023-04-17T02:59:39.849Z,18.42
2023-04-17T03:02:07.171Z,21.80
2023-04-17T03:04:34.623Z,23.48
2023-04-17T03:07:01.364Z,23.60
2023-04-17T03:09:27.983Z,24.92
2023-04-17T03:11:54.690Z,25.08
2023-04-17T03:14:21.377Z,23.55
2023-04-17T03:16:48.077Z,20.90
2023-04-17T03:19:14.798Z,22.90
2023-04-17T03:21:44.180Z,20.42
2023-04-17T03:24:18.283Z,19.98
2023-04-17T03:26:45.431Z,19.38
2023-04-17T03:29:14.858Z,19.90
2023-04-17T03:31:43.289Z,19.90
2023-04-17T03:34:10.082Z,20.73
2023-04-17T03:36:36.664Z,21.95
2023-04-17T03:39:03.431Z,23.23
2023-04-17T03:41:30.171Z,25.67
2023-04-17T03:43:57.055Z,24.17
2023-04-17T03:46:26.755Z,24.90
2023-04-17T03:48:56.588Z,22.30
2023-04-17T03:51:24.332Z,21.73
2023-04-17T03:53:51.118Z,21.58
2023-04-17T03:56:19.013Z,20.77
2023-04-17T03:58:45.797Z,20.75
2023-04-17T04:01:16.601Z,20.83
2023-04-17T04:03:44.746Z,22.00
2023-04-17T04:06:12.664Z,23.27
2023-04-17T04:08:40.513Z,24.77
2023-04-17T04:11:07.425Z,25.45
2023-04-17T04:13:34.295Z,21.40
2023-04-17T04:16:01.162Z,22.60
2023-04-17T04:18:27.992Z,21.25
2023-04-17T04:20:54.689Z,23.42
2023-04-17T04:23:21.398Z,22.20
2023-04-17T04:25:49.854Z,18.70
2023-04-17T04:28:17.882Z,19.30
2023-04-17T04:30:50.515Z,22.50
2023-04-17T04:33:20.589Z,24.90
2023-04-17T04:35:48.987Z,25.50
2023-04-17T04:38:17.278Z,28.23
2023-04-17T04:40:50.075Z,23.92
2023-04-17T04:43:16.872Z,25.38
2023-04-17T04:45:44.085Z,26.73
2023-04-17T04:48:12.835Z,24.42
2023-04-17T04:50:39.569Z,23.10
2023-04-17T04:53:06.322Z,22.15
2023-04-17T04:55:33.078Z,20.05
2023-04-17T04:57:59.783Z,20.65
2023-04-17T05:00:26.525Z,19.73
2023-04-17T05:02:53.324Z,19.85
2023-04-17T05:05:20.303Z,20.75
2023-04-17T05:07:46.961Z,18.52
2023-04-17T05:10:13.795Z,19.83
2023-04-17T05:12:42.947Z,21.17
2023-04-17T05:15:10.359Z,23.08
2023-04-17T05:17:37.617Z,20.80
2023-04-17T05:20:07.005Z,18.55
2023-04-17T05:22:33.778Z,19.90
2023-04-17T05:25:01.656Z,19.58
2023-04-17T05:27:28.343Z,19.52
2023-04-17T05:29:55.083Z,17.17
2023-04-17T05:32:22.033Z,17.38
2023-04-17T05:34:49.019Z,20.85
2023-04-17T05:37:15.802Z,18.65
2023-04-17T05:39:45.541Z,15.98
2023-04-17T05:42:15.369Z,16.67
2023-04-17T05:44:44.117Z,15.32
2023-04-17T05:47:10.749Z,15.75
2023-04-17T05:49:37.785Z,15.80
2023-04-17T05:52:04.761Z,15.90
2023-04-17T05:54:31.408Z,15.02
2023-04-17T05:56:57.998Z,14.70
2023-04-17T05:59:25.309Z,15.38
2023-04-17T06:01:52.677Z,13.25
2023-04-17T06:04:19.494Z,13.98
2023-04-17T06:06:46.330Z,13.57
2023-04-17T06:09:15.991Z,15.27
2023-04-17T06:11:44.095Z,13.20
2023-04-17T06:14:12.257Z,14.63
2023-04-17T06:16:38.943Z,13.48
2023-04-17T06:19:05.606Z,14.90
2023-04-17T06:21:32.572Z,13.65
2023-04-17T06:23:59.385Z,13.02
2023-04-17T06:26:26.379Z,13.13
2023-04-17T06:28:52.984Z,13.13
2023-04-17T06:31:19.880Z,13.40
2023-04-17T06:33:47.780Z,15.77
2023-04-17T06:36:14.283Z,12.38
2023-04-17T06:38:43.387Z,12.75
2023-04-17T06:41:10.038Z,13.45
2023-04-17T06:43:36.754Z,14.00
2023-04-17T06:46:03.474Z,13.27
2023-04-17T06:48:30.357Z,11.75
2023-04-17T06:50:57.083Z,11.10
2023-04-17T06:53:23.928Z,11.60
2023-04-17T06:55:50.564Z,10.43
2023-04-17T06:58:17.231Z,9.43
2023-04-17T07:00:44.081Z,9.07
2023-04-17T07:03:13.478Z,11.90
2023-04-17T07:05:40.568Z,7.78
2023-04-17T07:08:07.526Z,9.20
2023-04-17T07:10:34.154Z,8.98
2023-04-17T07:13:00.981Z,9.55
2023-04-17T07:15:30.664Z,7.68
2023-04-17T07:17:57.519Z,8.15
2023-04-17T07:20:24.896Z,9.60
2023-04-17T07:22:51.955Z,6.95
2023-04-17T07:25:19.900Z,11.07
2023-04-17T07:27:46.687Z,8.45
2023-04-17T07:30:14.334Z,8.45
2023-04-17T07:32:43.161Z,9.13
2023-04-17T07:35:10.099Z,8.23
2023-04-17T07:37:37.158Z,9.48
2023-04-17T07:40:05.703Z,9.55
2023-04-17T07:42:32.412Z,8.23
2023-04-17T07:44:59.067Z,8.88
2023-04-17T07:47:25.829Z,8.10
2023-04-17T07:49:52.581Z,7.90
2023-04-17T07:52:19.265Z,9.95
2023-04-17T07:54:46.035Z,9.85
2023-04-17T07:57:15.628Z,9.25
2023-04-17T07:59:44.873Z,8.77
2023-04-17T08:02:12.219Z,9.93
2023-04-17T08:04:40.494Z,8.57
2023-04-17T08:07:10.659Z,8.68
2023-04-17T08:09:37.551Z,11.30
2023-04-17T08:12:04.297Z,10.35
2023-04-17T08:14:31.220Z,8.90
2023-04-17T08:16:58.330Z,10.73
2023-04-17T08:19:25.112Z,10.82
2023-04-17T08:21:51.913Z,10.07
2023-04-17T08:24:19.965Z,10.98
2023-04-17T08:26:47.714Z,11.27
2023-04-17T08:29:14.885Z,9.80
2023-04-17T08:31:44.105Z,11.88
2023-04-17T08:34:15.311Z,11.52
2023-04-17T08:36:46.292Z,9.55
2023-04-17T08:39:16.710Z,9.82
2023-04-17T08:41:52.001Z,9.82
2023-04-17T08:44:21.329Z,9.38
2023-04-17T08:46:49.520Z,9.05
2023-04-17T08:49:16.465Z,9.95
2023-04-17T08:51:44.263Z,9.45
2023-04-17T08:54:15.041Z,7.95
2023-04-17T08:56:42.757Z,10.18
2023-04-17T08:59:09.583Z,9.23
2023-04-17T09:01:37.721Z,11.35
2023-04-17T09:06:50.225Z,8.07
2023-04-17T09:09:17.726Z,5.63
2023-04-17T09:11:44.615Z,6.68
2023-04-17T09:14:30.164Z,8.30
2023-04-17T09:16:57.999Z,7.60
2023-04-17T09:19:24.685Z,7.38
2023-04-17T09:21:54.019Z,6.82
2023-04-17T09:24:48.282Z,7.43
2023-04-17T09:27:24.084Z,5.85
2023-04-17T09:30:02.617Z,6.78
2023-04-17T09:32:31.784Z,6.85
2023-04-17T09:35:00.849Z,6.55
2023-04-17T09:37:53.814Z,6.88
2023-04-17T09:40:22.785Z,7.43
2023-04-17T09:42:57.492Z,6.65
2023-04-17T09:45:25.226Z,7.03
2023-04-17T09:48:01.721Z,5.97
2023-04-17T09:50:28.959Z,5.68
2023-04-17T09:52:57.011Z,6.80
2023-04-17T09:55:26.661Z,7.03
2023-04-17T09:57:54.747Z,7.63
2023-04-17T10:00:23.819Z,8.60
2023-04-17T10:02:52.361Z,7.40
2023-04-17T10:05:20.479Z,8.23
2023-04-17T10:07:47.748Z,7.28
2023-04-17T10:10:26.558Z,8.20
2023-04-17T10:12:56.371Z,7.40
2023-04-17T10:15:25.762Z,7.40
2023-04-17T10:17:56.500Z,10.43
2023-04-17T10:20:23.210Z,7.65
2023-04-17T10:22:56.316Z,7.30
2023-04-17T10:25:29.668Z,7.60
2023-04-17T10:28:00.553Z,7.85
2023-04-17T10:30:49.025Z,7.68
2023-04-17T10:33:15.850Z,7.68
2023-04-17T10:35:46.808Z,7.18
2023-04-17T10:38:13.557Z,6.78
2023-04-17T10:40:44.620Z,8.30
2023-04-17T10:43:20.496Z,7.13
2023-04-17T10:45:57.640Z,9.35
2023-04-17T10:48:38.943Z,6.72
2023-04-17T10:51:29.821Z,9.15
2023-04-17T10:53:57.289Z,8.70
2023-04-17T10:56:27.168Z,10.73
2023-04-17T10:59:03.038Z,8.38
2023-04-17T11:01:47.950Z,10.43
2023-04-17T11:04:23.095Z,9.75
2023-04-17T11:06:52.625Z,9.60
2023-04-17T11:09:21.125Z,9.75
2023-04-17T11:11:47.730Z,9.10
2023-04-17T11:14:19.878Z,11.05
2023-04-17T11:16:48.235Z,10.60
2023-04-17T11:19:19.262Z,11.07
2023-04-17T11:21:48.298Z,9.85
2023-04-17T11:24:28.919Z,9.80
2023-04-17T11:26:59.811Z,11.98
2023-04-17T11:29:27.196Z,10.75
2023-04-17T11:31:55.902Z,10.60
2023-04-17T11:34:23.042Z,10.20
2023-04-17T11:36:58.111Z,10.70
2023-04-17T11:39:29.836Z,12.00
2023-04-17T11:41:59.546Z,10.57
2023-04-17T11:44:26.294Z,9.05
2023-04-17T11:46:55.183Z,11.52
2023-04-17T11:49:28.885Z,11.77
2023-04-17T11:51:58.898Z,11.13
2023-04-17T11:54:29.458Z,10.88
2023-04-17T11:57:03.305Z,9.75
2023-04-17T11:59:37.973Z,10.85
2023-04-17T12:02:07.351Z,10.98
2023-04-17T12:04:36.406Z,11.90
2023-04-17T12:07:04.565Z,12.80
2023-04-17T12:09:32.737Z,10.13
2023-04-17T12:14:28.746Z,12.30
2023-04-17T12:16:55.387Z,11.00
2023-04-17T12:19:22.113Z,9.82
2023-04-17T12:21:48.721Z,10.85
2023-04-17T12:24:18.188Z,10.93
2023-04-17T12:26:49.195Z,11.70
2023-04-17T12:29:16.595Z,15.63
2023-04-17T12:31:45.225Z,10.93
2023-04-17T12:34:12.814Z,11.00
2023-04-17T12:36:42.621Z,11.50
2023-04-17T12:39:09.238Z,12.90
2023-04-17T12:41:36.219Z,11.85
2023-04-17T12:44:03.656Z,10.68
2023-04-17T12:46:30.673Z,10.48
2023-04-17T12:48:59.307Z,10.95
2023-04-17T12:51:28.029Z,13.20
2023-04-17T12:53:55.821Z,12.20
2023-04-17T12:56:22.664Z,11.73
2023-04-17T12:58:49.335Z,13.05
2023-04-17T13:01:16.232Z,10.65
2023-04-17T13:03:46.357Z,10.73
2023-04-17T13:06:17.101Z,11.50
2023-04-17T13:08:45.174Z,11.25
2023-04-17T13:11:12.954Z,11.90
2023-04-17T13:13:39.796Z,11.27
2023-04-17T13:16:06.736Z,10.20
2023-04-17T13:18:33.382Z,11.48
2023-04-17T13:21:00.016Z,11.43
2023-04-17T13:23:27.767Z,14.30
2023-04-17T13:25:54.637Z,10.55
2023-04-17T13:28:21.184Z,11.55
2023-04-17T13:30:47.845Z,10.32
2023-04-17T13:33:14.580Z,9.48
2023-04-17T13:35:44.523Z,9.35
2023-04-17T13:38:13.600Z,8.45
2023-04-17T13:40:43.589Z,9.73
2023-04-17T13:43:10.719Z,8.93
2023-04-17T13:45:39.826Z,10.13
2023-04-17T13:48:15.673Z,9.50
2023-04-17T13:50:45.388Z,8.77
2023-04-17T13:53:16.617Z,7.32
2023-04-17T13:55:45.001Z,8.48
2023-04-17T13:58:14.773Z,9.50
2023-04-17T14:00:43.950Z,9.20
2023-04-17T14:03:16.192Z,8.25
2023-04-17T14:05:44.420Z,10.35
2023-04-17T14:08:12.317Z,10.55
2023-04-17T14:10:38.959Z,7.35
2023-04-17T14:13:07.183Z,7.53
2023-04-17T14:15:34.139Z,6.53
2023-04-17T14:18:01.404Z,7.00
2023-04-17T14:20:28.625Z,8.43
2023-04-17T14:22:56.599Z,6.68
2023-04-17T14:25:23.657Z,6.45
2023-04-17T14:27:52.586Z,8.13
2023-04-17T14:30:20.149Z,8.57
2023-04-17T14:32:47.172Z,9.88
2023-04-17T14:35:15.294Z,8.02
2023-04-17T14:37:43.682Z,7.45
2023-04-17T14:40:13.127Z,6.95
2023-04-17T14:42:51.295Z,7.50
2023-04-17T14:45:23.108Z,9.00
2023-04-17T14:47:51.317Z,6.05
2023-04-17T14:50:19.337Z,8.52
2023-04-17T14:52:46.086Z,10.35
2023-04-17T14:55:16.055Z,7.65
2023-04-17T14:57:46.848Z,8.95
2023-04-17T15:00:14.231Z,7.30
2023-04-17T15:02:44.593Z,6.78
2023-04-17T15:05:13.743Z,8.27
2023-04-17T15:07:43.049Z,7.20
2023-04-17T15:10:12.553Z,6.72
2023-04-17T15:12:41.283Z,11.30
2023-04-17T15:15:09.933Z,8.80
2023-04-17T15:17:38.287Z,8.23
2023-04-17T15:20:06.086Z,10.00
2023-04-17T15:22:32.966Z,9.20
2023-04-17T15:24:59.733Z,9.48
2023-04-17T15:27:26.504Z,10.20
2023-04-17T15:29:53.125Z,11.50
2023-04-17T15:32:21.294Z,10.43
2023-04-17T15:34:49.519Z,10.77
2023-04-17T15:37:18.969Z,9.85
2023-04-17T15:39:46.637Z,10.27
2023-04-17T15:42:17.257Z,10.55
2023-04-17T15:44:45.355Z,9.43
2023-04-17T15:47:14.662Z,10.30
2023-04-17T15:49:43.220Z,11.57
2023-04-17T15:52:10.356Z,10.52
2023-04-17T15:54:37.081Z,12.30
2023-04-17T15:57:03.760Z,9.50
2023-04-17T15:59:33.635Z,12.27
2023-04-17T16:02:00.675Z,11.80
2023-04-17T16:04:27.597Z,9.27
2023-04-17T16:06:55.065Z,10.93
2023-04-17T16:09:24.478Z,10.75
2023-04-17T16:11:51.519Z,9.50
2023-04-17T16:14:18.208Z,9.60
2023-04-17T16:16:46.406Z,12.20
2023-04-17T16:19:15.788Z,12.38
2023-04-17T16:21:44.467Z,11.02
2023-04-17T16:24:13.373Z,10.88
2023-04-17T16:26:43.576Z,10.57
2023-04-17T16:29:14.461Z,10.77
2023-04-17T16:31:42.859Z,14.85
2023-04-17T16:34:09.988Z,13.52
2023-04-17T16:36:37.959Z,10.02
2023-04-17T16:39:05.169Z,9.95
2023-04-17T16:41:32.984Z,10.43
2023-04-17T16:44:02.050Z,9.90
2023-04-17T16:46:40.276Z,8.80
2023-04-17T16:49:17.686Z,9.18
2023-04-17T16:51:45.441Z,9.50
2023-04-17T16:54:13.801Z,9.50
2023-04-17T16:56:47.520Z,7.68
2023-04-17T16:59:14.346Z,9.25
2023-04-17T17:01:43.007Z,8.65
2023-04-17T17:04:13.292Z,9.32
2023-04-17T17:06:40.071Z,9.93
2023-04-17T17:09:06.714Z,9.00
2023-04-17T17:11:33.571Z,7.85
2023-04-17T17:14:01.699Z,8.73
2023-04-17T17:16:28.850Z,10.77
2023-04-17T17:18:55.608Z,10.52
2023-04-17T17:21:23.302Z,8.02
2023-04-17T17:23:49.916Z,10.02
2023-04-17T17:26:17.429Z,8.43
2023-04-17T17:28:50.859Z,8.00
2023-04-17T17:31:17.888Z,9.20
2023-04-17T17:33:44.790Z,9.65
2023-04-17T17:36:16.096Z,10.82
2023-04-17T17:38:45.646Z,8.30
2023-04-17T17:41:14.313Z,8.55
2023-04-17T17:43:40.915Z,7.47
2023-04-17T17:46:10.420Z,8.90
2023-04-17T17:48:39.625Z,8.35
2023-04-17T17:51:06.280Z,7.07
2023-04-17T17:53:33.091Z,8.70
2023-04-17T17:55:59.770Z,9.25
2023-04-17T17:58:27.433Z,7.55
2023-04-17T18:00:54.336Z,8.20
2023-04-17T18:03:21.314Z,7.60
2023-04-17T18:05:48.155Z,8.18
2023-04-17T18:08:14.953Z,8.15
2023-04-17T18:10:43.430Z,8.85
2023-04-17T18:15:36.761Z,8.23
2023-04-17T18:18:03.675Z,7.68
2023-04-17T18:20:30.493Z,10.05
2023-04-17T18:22:57.696Z,8.25
2023-04-17T18:25:24.374Z,8.23
2023-04-17T18:27:51.036Z,9.25
2023-04-17T18:30:18.689Z,9.75
2023-04-17T18:32:45.384Z,9.60
2023-04-17T18:35:13.302Z,10.90
2023-04-17T18:37:39.941Z,8.38
2023-04-17T18:40:07.969Z,9.15
2023-04-17T18:42:35.677Z,11.07
2023-04-17T18:45:03.068Z,10.35
2023-04-17T18:47:30.073Z,8.23
2023-04-17T18:49:56.773Z,8.57
2023-04-17T18:52:23.619Z,11.57
2023-04-17T18:54:51.237Z,9.75
2023-04-17T18:57:17.888Z,9.63
2023-04-17T18:59:45.961Z,9.60
2023-04-17T19:02:16.075Z,11.65
2023-04-17T19:04:43.953Z,9.63
2023-04-17T19:07:13.622Z,9.75
2023-04-17T19:09:40.345Z,9.23
2023-04-17T19:12:07.090Z,9.40
2023-04-17T19:14:33.659Z,9.18
2023-04-17T19:17:00.302Z,9.93
2023-04-17T19:19:26.926Z,10.20
2023-04-17T19:21:53.652Z,10.70
2023-04-17T19:24:20.500Z,9.68
2023-04-17T19:26:47.264Z,10.55
2023-04-17T19:29:17.048Z,10.18
2023-04-17T19:31:44.952Z,13.13
2023-04-17T19:34:13.794Z,12.35
2023-04-17T19:36:40.907Z,10.40
2023-04-17T19:39:08.363Z,10.70
2023-04-17T19:41:35.018Z,12.75
2023-04-17T19:44:01.660Z,11.52
2023-04-17T19:46:29.343Z,11.75
2023-04-17T19:48:56.122Z,11.68
2023-04-17T19:51:23.056Z,12.07
2023-04-17T19:53:49.778Z,13.48
2023-04-17T19:56:16.428Z,12.15
2023-04-17T19:58:46.697Z,10.80
2023-04-17T20:01:15.182Z,11.57
2023-04-17T20:06:11.264Z,10.20
2023-04-17T20:08:38.188Z,10.98
2023-04-17T20:11:06.516Z,13.85
2023-04-17T20:13:33.134Z,11.82
2023-04-17T20:15:59.896Z,10.93
2023-04-17T20:18:27.278Z,10.85
2023-04-17T20:20:53.938Z,10.40
2023-04-17T20:23:20.656Z,12.77
2023-04-17T20:25:47.324Z,9.57
2023-04-17T20:28:13.899Z,13.95
2023-04-17T20:30:43.137Z,10.63
2023-04-17T20:33:09.811Z,9.88
2023-04-17T20:35:36.557Z,11.07
2023-04-17T20:38:03.185Z,10.20
2023-04-17T20:40:29.882Z,9.95
2023-04-17T20:42:56.541Z,10.25
2023-04-17T20:45:23.311Z,10.93
2023-04-17T20:50:20.325Z,9.18
2023-04-17T20:52:47.215Z,10.50
2023-04-17T20:55:15.369Z,10.40
2023-04-17T20:57:42.358Z,10.70
2023-04-17T21:00:09.718Z,11.35
2023-04-17T21:02:36.481Z,12.35
2023-04-17T21:05:03.671Z,11.88
2023-04-17T21:07:30.935Z,10.60
2023-04-17T21:09:57.636Z,12.00
2023-04-17T21:12:24.223Z,12.48
2023-04-17T21:14:50.837Z,10.23
2023-04-17T21:17:17.456Z,11.63
2023-04-17T21:19:44.633Z,12.98
2023-04-17T21:22:13.571Z,12.07
2023-04-17T21:24:40.244Z,12.60
2023-04-17T21:27:06.990Z,13.25
2023-04-17T21:29:33.589Z,12.13
2023-04-17T21:32:00.574Z,15.70
2023-04-17T21:34:27.316Z,16.80
2023-04-17T21:36:54.568Z,16.90
2023-04-17T21:39:21.961Z,16.63
2023-04-17T21:41:48.737Z,16.85
2023-04-17T21:44:15.542Z,17.98
2023-04-17T21:46:47.852Z,17.23
2023-04-17T21:49:14.492Z,16.83
2023-04-17T21:51:42.474Z,21.27
2023-04-17T21:54:10.166Z,18.35
2023-04-17T21:56:36.989Z,22.15
2023-04-17T21:59:03.853Z,22.50
2023-04-17T22:01:30.541Z,22.70
2023-04-17T22:03:57.412Z,18.13
2023-04-17T22:06:25.105Z,19.17
2023-04-17T22:08:51.765Z,20.63
2023-04-17T22:11:18.430Z,22.88
2023-04-17T22:13:47.092Z,21.98
2023-04-17T22:18:40.828Z,27.23
2023-04-17T22:21:07.672Z,22.67
2023-04-17T22:23:34.309Z,23.50
2023-04-17T22:26:01.016Z,22.45
2023-04-17T22:28:31.351Z,24.42
2023-04-17T22:30:59.073Z,30.17
2023-04-17T22:33:26.262Z,28.50
2023-04-17T22:35:53.277Z,28.60
2023-04-17T22:38:21.211Z,24.48
2023-04-17T22:40:48.160Z,27.20
2023-04-17T22:43:15.432Z,25.67
2023-04-17T22:45:44.790Z,24.33
2023-04-17T22:48:13.499Z,22.10
2023-04-17T22:53:07.765Z,21.67
2023-04-17T22:55:34.462Z,23.95
2023-04-17T22:58:02.207Z,19.83
2023-04-17T23:00:30.270Z,23.67
2023-04-17T23:02:57.034Z,24.95
2023-04-17T23:05:23.866Z,24.35
2023-04-17T23:07:51.713Z,22.42
2023-04-17T23:10:20.673Z,20.75
2023-04-17T23:12:47.296Z,25.08
2023-04-17T23:15:14.077Z,23.40
2023-04-17T23:17:40.795Z,26.15
2023-04-17T23:20:07.868Z,22.20
2023-04-17T23:22:35.755Z,22.38
2023-04-17T23:25:02.928Z,20.65
2023-04-17T23:27:30.914Z,20.35
2023-04-17T23:29:59.362Z,27.05
2023-04-17T23:32:26.119Z,25.77
2023-04-17T23:34:52.837Z,27.85
2023-04-17T23:37:20.606Z,28.70
2023-04-17T23:39:48.286Z,24.25
2023-04-17T23:42:15.990Z,26.38
2023-04-17T23:44:45.107Z,41.95
2023-04-17T23:47:14.458Z,51.40
2023-04-17T23:49:41.691Z,42.22
2023-04-17T23:52:09.043Z,38.10
2023-04-17T23:54:35.603Z,32.15
2023-04-17T23:57:04.175Z,30.70
2023-04-17T23:59:30.853Z,26.67
